Time;durP1;ratioP1;P1;durP2;ratioP2;P2;SDS_P1;SDS_P2;PMS_P1;PMS_P2;Temp;Humidity;BMP_temperature;BMP_pressure;BME280_temperature;BME280_humidity;BME280_pressure;Samples;Min_cycle;Max_cycle;Signal;HPM_P1;HPM_P2
2021/09/28 00:00:08;;;;;;;4.00;2.30;;;15.20;99.90;;;;;;4995945;28;20606;-69
2021/09/28 00:02:39;;;;;;;9.87;2.63;;;15.20;99.90;;;;;;4993331;28;20317;-69
2021/09/28 00:05:08;;;;;;;9.50;2.70;;;15.10;99.90;;;;;;4991360;28;20246;-69
2021/09/28 00:07:36;;;;;;;8.90;2.60;;;15.10;99.90;;;;;;4988861;28;20338;-70
2021/09/28 00:10:06;;;;;;;5.50;2.43;;;15.10;99.90;;;;;;4990554;28;20237;-69
2021/09/28 00:12:34;;;;;;;8.33;2.90;;;15.10;99.90;;;;;;4996697;28;20320;-69
2021/09/28 00:15:02;;;;;;;7.77;2.97;;;15.10;99.90;;;;;;4994222;28;20247;-69
2021/09/28 00:17:35;;;;;;;8.03;2.70;;;15.10;99.90;;;;;;4983779;28;20238;-69
2021/09/28 00:20:04;;;;;;;10.70;2.63;;;15.00;99.90;;;;;;4994833;28;20234;-69
2021/09/28 00:22:32;;;;;;;10.20;2.90;;;15.00;99.90;;;;;;4995595;28;20238;-69
2021/09/28 00:25:02;;;;;;;7.77;2.90;;;15.00;99.90;;;;;;5000922;28;20250;-69
2021/09/28 00:27:30;;;;;;;8.93;2.57;;;14.90;99.90;;;;;;4998867;28;20333;-69
2021/09/28 00:30:01;;;;;;;8.43;2.50;;;14.90;99.90;;;;;;5002029;28;20293;-69
2021/09/28 00:32:29;;;;;;;7.67;2.50;;;14.90;99.90;;;;;;4998345;28;20712;-69
2021/09/28 00:34:58;;;;;;;7.10;2.50;;;14.90;99.90;;;;;;4999562;28;20237;-69
2021/09/28 00:37:27;;;;;;;5.80;2.40;;;14.80;99.90;;;;;;4999137;28;20240;-69
2021/09/28 00:39:56;;;;;;;10.33;3.33;;;14.70;99.90;;;;;;4998907;28;20741;-69
2021/09/28 00:42:24;;;;;;;11.23;2.67;;;14.80;99.90;;;;;;4989212;28;20237;-69
2021/09/28 00:44:52;;;;;;;6.93;2.23;;;14.70;99.90;;;;;;4992478;28;20239;-69
2021/09/28 00:47:20;;;;;;;8.93;3.00;;;14.70;99.90;;;;;;4995158;28;20342;-69
2021/09/28 00:49:50;;;;;;;7.17;2.50;;;14.70;99.90;;;;;;5000409;28;20241;-69
2021/09/28 00:52:21;;;;;;;7.97;2.60;;;14.60;99.90;;;;;;4988836;28;20308;-69
2021/09/28 00:54:50;;;;;;;10.63;2.70;;;14.60;99.90;;;;;;5000481;28;20637;-69
2021/09/28 00:57:20;;;;;;;5.80;2.50;;;14.70;99.90;;;;;;5000831;28;20230;-69
2021/09/28 00:59:49;;;;;;;8.70;3.00;;;14.70;99.90;;;;;;4990016;28;20265;-69
2021/09/28 01:02:17;;;;;;;10.67;2.90;;;14.60;99.90;;;;;;4990098;28;20722;-69
2021/09/28 01:04:46;;;;;;;7.47;2.50;;;14.60;99.90;;;;;;5004563;28;20244;-69
2021/09/28 01:07:14;;;;;;;5.90;2.60;;;14.60;99.90;;;;;;4991332;28;20714;-69
2021/09/28 01:09:44;;;;;;;6.20;2.40;;;14.60;99.90;;;;;;4998606;28;20484;-69
2021/09/28 01:12:13;;;;;;;8.80;2.90;;;14.60;99.90;;;;;;5002216;28;20311;-69
2021/09/28 01:14:42;;;;;;;7.93;2.87;;;14.60;99.90;;;;;;4993263;28;20237;-69
2021/09/28 01:17:11;;;;;;;8.40;2.70;;;14.60;99.90;;;;;;5001241;28;20272;-69
2021/09/28 01:19:42;;;;;;;7.83;2.70;;;14.50;99.90;;;;;;4997151;28;20229;-70
2021/09/28 01:22:15;;;;;;;11.73;3.37;;;14.50;99.90;;;;;;4996688;28;20579;-69
2021/09/28 01:24:45;;;;;;;8.83;2.43;;;14.50;99.90;;;;;;4990354;28;20605;-69
2021/09/28 01:27:13;;;;;;;7.87;2.83;;;14.60;99.90;;;;;;4998479;28;20287;-69
2021/09/28 01:29:42;;;;;;;7.83;2.87;;;14.60;99.90;;;;;;4993839;28;20244;-69
2021/09/28 01:32:11;;;;;;;7.10;3.17;;;14.60;99.90;;;;;;4994337;28;20299;-69
2021/09/28 01:35:29;;;;;;;7.93;3.07;;;14.60;99.90;;;;;;4999261;28;20237;-69
2021/09/28 01:37:59;;;;;;;5.83;2.20;;;14.50;99.90;;;;;;4997659;28;20234;-69
2021/09/28 01:40:27;;;;;;;7.33;2.90;;;14.50;99.90;;;;;;4998959;28;20240;-69
2021/09/28 01:42:55;;;;;;;8.43;2.80;;;14.50;99.90;;;;;;4992862;28;20237;-69
2021/09/28 01:45:23;;;;;;;8.07;2.63;;;14.50;99.90;;;;;;5001280;28;20242;-69
2021/09/28 01:47:52;;;;;;;8.07;2.83;;;14.50;99.90;;;;;;4998778;28;20233;-69
2021/09/28 01:50:20;;;;;;;6.73;2.73;;;14.40;99.90;;;;;;4993420;28;20233;-69
2021/09/28 01:52:48;;;;;;;6.47;2.67;;;14.40;99.90;;;;;;4995757;28;20245;-69
2021/09/28 01:55:17;;;;;;;5.73;3.10;;;14.50;99.90;;;;;;5000612;28;20746;-69
2021/09/28 01:57:46;;;;;;;8.83;2.67;;;14.50;99.90;;;;;;5001198;28;20656;-69
2021/09/28 02:00:17;;;;;;;5.87;2.70;;;14.50;99.90;;;;;;4989826;28;20254;-69
2021/09/28 02:02:45;;;;;;;8.53;2.60;;;14.50;99.90;;;;;;4984620;28;20262;-69
2021/09/28 02:05:13;;;;;;;6.40;2.23;;;14.50;99.90;;;;;;4990907;28;20236;-69
2021/09/28 02:07:41;;;;;;;8.70;2.77;;;14.50;99.90;;;;;;4994752;28;20320;-69
2021/09/28 02:10:10;;;;;;;9.00;2.30;;;14.50;99.90;;;;;;4994977;28;20621;-69
2021/09/28 02:12:40;;;;;;;6.07;2.40;;;14.50;99.90;;;;;;4993075;28;20269;-69
2021/09/28 02:15:09;;;;;;;10.87;2.63;;;14.40;99.90;;;;;;4992502;28;20708;-69
2021/09/28 02:17:39;;;;;;;9.50;2.97;;;14.30;99.90;;;;;;4995280;28;20841;-68
2021/09/28 02:20:09;;;;;;;7.17;2.43;;;14.30;99.90;;;;;;4994526;28;20731;-69
2021/09/28 02:22:38;;;;;;;9.63;2.80;;;14.20;99.90;;;;;;5001212;28;20248;-69
2021/09/28 02:25:08;;;;;;;10.47;2.97;;;14.20;99.90;;;;;;4992522;28;20649;-69
2021/09/28 02:27:39;;;;;;;9.73;2.63;;;14.10;99.90;;;;;;4986134;28;20243;-69
2021/09/28 02:30:09;;;;;;;10.90;2.80;;;14.10;99.90;;;;;;4991981;28;20753;-68
2021/09/28 02:32:38;;;;;;;8.13;2.37;;;14.10;99.90;;;;;;4984368;28;20241;-69
2021/09/28 02:35:06;;;;;;;12.33;2.70;;;14.10;99.90;;;;;;4988765;28;20241;-69
2021/09/28 02:37:38;;;;;;;10.30;3.10;;;14.10;99.90;;;;;;4995407;28;20690;-69
2021/09/28 02:40:09;;;;;;;8.90;2.70;;;14.10;99.90;;;;;;4996491;28;20244;-69
2021/09/28 02:42:37;;;;;;;5.23;2.23;;;14.00;99.90;;;;;;4985245;28;20718;-68
2021/09/28 02:45:08;;;;;;;10.07;3.00;;;14.00;99.90;;;;;;4990325;28;20245;-69
2021/09/28 02:47:41;;;;;;;5.97;2.50;;;14.00;99.90;;;;;;4994371;28;20307;-68
2021/09/28 02:50:09;;;;;;;7.13;2.63;;;13.90;99.90;;;;;;4988721;28;20230;-69
2021/09/28 02:52:37;;;;;;;6.90;2.80;;;13.90;99.90;;;;;;4997673;28;20601;-69
2021/09/28 02:55:07;;;;;;;9.87;2.80;;;14.00;99.90;;;;;;5001826;28;20255;-69
2021/09/28 02:57:38;;;;;;;10.60;2.57;;;14.00;99.90;;;;;;4993859;28;20229;-68
2021/09/28 03:00:10;;;;;;;10.20;3.00;;;14.00;99.90;;;;;;4995022;28;20251;-68
2021/09/28 03:02:38;;;;;;;9.27;2.50;;;13.90;99.90;;;;;;4997060;28;20260;-69
2021/09/28 03:05:07;;;;;;;7.03;2.63;;;13.80;99.90;;;;;;5006289;28;20238;-69
2021/09/28 03:07:35;;;;;;;9.13;2.57;;;13.90;99.90;;;;;;4999422;28;20233;-69
2021/09/28 03:10:04;;;;;;;5.73;2.10;;;13.80;99.90;;;;;;5003774;28;20323;-69
2021/09/28 03:12:33;;;;;;;8.93;3.30;;;13.80;99.90;;;;;;4994600;28;20237;-69
2021/09/28 03:15:01;;;;;;;8.97;2.57;;;13.70;99.90;;;;;;4996892;28;20733;-69
2021/09/28 03:17:30;;;;;;;7.80;2.27;;;13.60;99.90;;;;;;4999730;28;20253;-69
2021/09/28 03:19:58;;;;;;;8.40;2.27;;;13.60;99.90;;;;;;4991073;28;20654;-69
2021/09/28 03:22:27;;;;;;;7.90;2.13;;;13.60;99.90;;;;;;5006348;28;20256;-69
2021/09/28 03:24:55;;;;;;;5.10;2.00;;;13.60;99.90;;;;;;4997411;28;20237;-69
2021/09/28 03:27:23;;;;;;;6.77;2.23;;;13.60;99.90;;;;;;4998189;28;20245;-69
2021/09/28 03:29:51;;;;;;;9.00;2.37;;;13.70;99.90;;;;;;4995024;28;20243;-69
2021/09/28 03:32:19;;;;;;;6.00;2.07;;;13.60;99.90;;;;;;4992924;28;20229;-69
2021/09/28 03:34:49;;;;;;;6.33;1.93;;;13.60;99.90;;;;;;4997240;28;20244;-69
2021/09/28 03:37:17;;;;;;;5.17;2.20;;;13.50;99.90;;;;;;4994779;28;20332;-69
2021/09/28 03:39:45;;;;;;;5.23;2.03;;;13.60;99.90;;;;;;4997390;28;20323;-69
2021/09/28 03:42:13;;;;;;;6.93;2.20;;;13.50;99.90;;;;;;5001727;28;20248;-69
2021/09/28 03:44:41;;;;;;;5.57;1.90;;;13.50;99.90;;;;;;4992582;28;20244;-69
2021/09/28 03:47:10;;;;;;;5.30;2.00;;;13.50;99.90;;;;;;4994670;28;20260;-69
2021/09/28 03:49:39;;;;;;;4.57;1.90;;;13.40;99.90;;;;;;5004272;28;20264;-69
2021/09/28 03:52:09;;;;;;;8.93;2.40;;;13.40;99.90;;;;;;5003891;28;20674;-69
2021/09/28 03:54:37;;;;;;;4.30;2.20;;;13.40;99.90;;;;;;4994985;28;20229;-69
2021/09/28 03:57:05;;;;;;;7.50;2.50;;;13.50;99.90;;;;;;4997439;28;20283;-69
2021/09/28 03:59:33;;;;;;;4.63;2.07;;;13.50;99.90;;;;;;4994591;28;20725;-69
2021/09/28 04:02:01;;;;;;;5.53;2.07;;;13.40;99.90;;;;;;5007744;28;20671;-69
2021/09/28 04:04:30;;;;;;;5.87;2.10;;;13.40;99.90;;;;;;4987781;28;20224;-69
2021/09/28 04:06:59;;;;;;;5.43;1.90;;;13.30;99.90;;;;;;4999583;28;20663;-69
2021/09/28 04:09:28;;;;;;;6.70;2.20;;;13.40;99.90;;;;;;5000906;28;20245;-69
2021/09/28 04:11:56;;;;;;;7.53;2.20;;;13.40;99.90;;;;;;4997985;28;20245;-69
2021/09/28 04:14:26;;;;;;;5.33;1.60;;;13.30;99.90;;;;;;5001836;28;20244;-69
2021/09/28 04:16:54;;;;;;;7.70;1.77;;;13.20;99.90;;;;;;4990699;28;20237;-69
2021/09/28 04:19:22;;;;;;;5.87;1.90;;;13.20;99.90;;;;;;4994978;28;20296;-69
2021/09/28 04:21:50;;;;;;;8.07;2.17;;;13.20;99.90;;;;;;5000894;28;20232;-69
2021/09/28 04:24:19;;;;;;;2.63;1.73;;;13.30;99.90;;;;;;4995388;28;20229;-69
2021/09/28 04:26:49;;;;;;;8.43;2.63;;;13.30;99.90;;;;;;4994929;28;20240;-69
2021/09/28 04:29:17;;;;;;;5.70;1.90;;;13.30;99.90;;;;;;4993954;28;20278;-69
2021/09/28 04:31:45;;;;;;;8.77;2.70;;;13.30;99.90;;;;;;4993327;28;20375;-69
2021/09/28 04:34:13;;;;;;;10.20;2.53;;;13.40;99.90;;;;;;4988805;28;20240;-69
2021/09/28 04:36:42;;;;;;;9.70;3.00;;;13.30;99.90;;;;;;4995039;28;20486;-69
2021/09/28 04:39:10;;;;;;;6.83;2.10;;;13.40;99.90;;;;;;4998626;28;20240;-69
2021/09/28 04:41:38;;;;;;;5.50;1.90;;;13.20;99.90;;;;;;4994697;28;20314;-69
2021/09/28 04:44:08;;;;;;;6.37;2.73;;;13.10;99.90;;;;;;4995728;28;20622;-68
2021/09/28 04:46:36;;;;;;;6.90;2.17;;;13.10;99.90;;;;;;4994832;28;20625;-69
2021/09/28 04:49:04;;;;;;;8.60;2.13;;;13.00;99.90;;;;;;4997690;28;20245;-69
2021/09/28 04:51:33;;;;;;;6.57;2.20;;;12.90;99.90;;;;;;4991864;28;20604;-69
2021/09/28 04:54:01;;;;;;;9.63;3.40;;;12.80;99.90;;;;;;4991695;28;20245;-69
2021/09/28 04:56:30;;;;;;;7.77;4.23;;;12.70;99.90;;;;;;4984096;28;20311;-68
2021/09/28 04:58:58;;;;;;;9.80;4.50;;;12.80;99.90;;;;;;4986592;28;20236;-69
2021/09/28 05:01:27;;;;;;;7.43;4.27;;;12.70;99.90;;;;;;4985699;28;20298;-69
2021/09/28 05:03:55;;;;;;;7.97;3.90;;;12.60;99.90;;;;;;4981744;28;20296;-69
2021/09/28 05:06:24;;;;;;;7.07;3.60;;;12.60;99.90;;;;;;4987585;28;20419;-69
2021/09/28 05:08:52;;;;;;;6.90;3.60;;;12.90;99.90;;;;;;4984510;28;20240;-69
2021/09/28 05:11:20;;;;;;;6.63;3.83;;;12.90;99.90;;;;;;4990651;28;20245;-68
2021/09/28 05:13:48;;;;;;;6.83;3.87;;;12.80;99.90;;;;;;4985460;28;20248;-69
2021/09/28 05:16:17;;;;;;;8.50;4.53;;;12.60;99.90;;;;;;4983862;28;20304;-69
2021/09/28 05:18:46;;;;;;;9.47;5.33;;;12.80;99.90;;;;;;5000953;28;20334;-68
2021/09/28 05:21:14;;;;;;;12.40;6.33;;;12.60;99.90;;;;;;5000819;28;20580;-68
2021/09/28 05:23:46;;;;;;;13.63;5.80;;;12.70;99.90;;;;;;4991563;28;20233;-69
2021/09/28 05:26:15;;;;;;;9.50;5.03;;;12.60;99.90;;;;;;4995712;28;20247;-68
2021/09/28 05:28:43;;;;;;;7.63;4.20;;;12.60;99.90;;;;;;4990628;28;20241;-69
2021/09/28 05:31:12;;;;;;;7.37;3.17;;;12.50;99.90;;;;;;4987862;28;20264;-69
2021/09/28 05:33:40;;;;;;;6.17;3.40;;;12.40;99.90;;;;;;4988312;28;20548;-69
2021/09/28 05:36:10;;;;;;;7.40;3.60;;;12.30;99.90;;;;;;4990470;28;20264;-68
2021/09/28 05:38:38;;;;;;;7.87;3.20;;;12.30;99.90;;;;;;4993355;28;20284;-68
2021/09/28 05:41:09;;;;;;;7.90;3.63;;;12.30;99.90;;;;;;4992801;28;20644;-68
2021/09/28 05:43:38;;;;;;;7.90;3.27;;;12.30;99.90;;;;;;4995985;28;20670;-69
2021/09/28 05:46:07;;;;;;;11.17;3.17;;;12.30;99.90;;;;;;4992523;28;20708;-68
2021/09/28 05:48:35;;;;;;;7.60;3.00;;;12.30;99.90;;;;;;4980248;28;20231;-68
2021/09/28 05:51:14;;;;;;;9.07;3.10;;;12.30;99.90;;;;;;4987763;28;20709;-69
2021/09/28 05:53:44;;;;;;;6.97;3.13;;;12.30;99.90;;;;;;4988557;28;20698;-68
2021/09/28 05:56:12;;;;;;;4.60;3.10;;;12.30;99.90;;;;;;4996925;28;20311;-69
2021/09/28 05:58:40;;;;;;;7.47;3.80;;;12.30;99.90;;;;;;4996580;28;20467;-69
2021/09/28 06:01:09;;;;;;;5.97;3.17;;;12.30;99.90;;;;;;4993845;28;20241;-69
2021/09/28 06:03:37;;;;;;;6.93;3.17;;;12.40;99.90;;;;;;4994929;28;20226;-68
2021/09/28 06:06:05;;;;;;;5.50;2.83;;;12.40;99.90;;;;;;4996176;28;20715;-69
2021/09/28 06:08:35;;;;;;;6.83;3.17;;;12.50;99.90;;;;;;4996556;28;20237;-68
2021/09/28 06:11:04;;;;;;;9.07;3.13;;;12.50;99.90;;;;;;4993417;28;20245;-68
2021/09/28 06:13:32;;;;;;;9.10;3.30;;;12.60;99.90;;;;;;4990265;28;20224;-69
2021/09/28 06:16:00;;;;;;;6.13;3.30;;;12.60;99.90;;;;;;5000415;28;20238;-69
2021/09/28 06:18:28;;;;;;;7.60;3.60;;;12.70;99.90;;;;;;5001283;28;20263;-69
2021/09/28 06:20:57;;;;;;;6.63;3.03;;;12.70;99.90;;;;;;4993123;28;20236;-69
2021/09/28 06:23:25;;;;;;;7.70;3.00;;;12.60;99.90;;;;;;4991159;28;20742;-69
2021/09/28 06:25:57;;;;;;;4.13;3.03;;;12.60;99.90;;;;;;4993376;28;20645;-68
2021/09/28 06:28:25;;;;;;;5.90;3.33;;;12.60;99.90;;;;;;4988958;28;20230;-68
2021/09/28 06:30:53;;;;;;;3.97;3.10;;;12.70;99.90;;;;;;4982974;28;20740;-68
2021/09/28 06:33:21;;;;;;;8.53;3.43;;;12.80;99.90;;;;;;4983608;28;20780;-69
2021/09/28 06:35:49;;;;;;;5.47;3.00;;;12.90;99.90;;;;;;4978165;28;20621;-68
2021/09/28 06:38:17;;;;;;;7.03;3.37;;;12.80;99.90;;;;;;4991084;28;20237;-68
2021/09/28 06:40:45;;;;;;;6.50;3.10;;;12.80;99.90;;;;;;4987312;28;20256;-68
2021/09/28 06:43:15;;;;;;;4.97;3.40;;;12.80;99.90;;;;;;4993991;28;20251;-68
2021/09/28 06:45:43;;;;;;;8.93;3.87;;;12.80;99.90;;;;;;4991757;28;20255;-69
2021/09/28 06:48:11;;;;;;;7.17;3.80;;;12.90;99.90;;;;;;4989062;28;20275;-68
2021/09/28 06:50:39;;;;;;;7.23;3.20;;;13.00;99.90;;;;;;4984224;28;20262;-68
2021/09/28 06:53:08;;;;;;;6.07;3.63;;;13.10;99.90;;;;;;4997222;28;20239;-68
2021/09/28 06:55:37;;;;;;;8.10;3.97;;;13.30;99.90;;;;;;4987593;28;20240;-69
2021/09/28 06:58:05;;;;;;;9.10;3.93;;;13.40;99.90;;;;;;4994154;28;20243;-68
2021/09/28 07:00:36;;;;;;;10.03;4.17;;;13.50;99.90;;;;;;4996550;28;20327;-68
2021/09/28 07:03:05;;;;;;;8.30;4.10;;;13.70;99.90;;;;;;5000152;28;20592;-68
2021/09/28 07:05:34;;;;;;;6.50;4.17;;;13.80;99.90;;;;;;4981605;28;20232;-68
2021/09/28 07:08:02;;;;;;;7.20;4.97;;;14.00;99.90;;;;;;4984510;28;20323;-68
2021/09/28 07:10:32;;;;;;;11.47;4.60;;;14.10;99.90;;;;;;4979422;28;20234;-68
2021/09/28 07:13:00;;;;;;;8.47;4.30;;;14.20;99.90;;;;;;4983429;28;20237;-68
2021/09/28 07:15:29;;;;;;;8.50;5.10;;;14.40;99.90;;;;;;4979831;28;20271;-68
2021/09/28 07:17:58;;;;;;;5.70;4.60;;;14.50;99.90;;;;;;4992964;28;20241;-68
2021/09/28 07:20:27;;;;;;;9.03;5.00;;;14.60;99.90;;;;;;4992440;28;20256;-68
2021/09/28 07:22:55;;;;;;;7.17;4.97;;;14.80;99.90;;;;;;4990864;28;20324;-68
2021/09/28 07:25:23;;;;;;;9.90;4.93;;;14.90;99.90;;;;;;4989358;28;20306;-68
2021/09/28 07:27:57;;;;;;;6.23;4.90;;;15.10;99.90;;;;;;4989177;28;20602;-68
2021/09/28 07:30:26;;;;;;;6.40;4.47;;;15.20;99.90;;;;;;4983951;28;20244;-68
2021/09/28 07:32:55;;;;;;;5.93;4.30;;;15.40;99.90;;;;;;4981184;28;20594;-68
2021/09/28 07:35:25;;;;;;;8.77;5.13;;;15.60;99.90;;;;;;4978373;28;20320;-68
2021/09/28 07:37:53;;;;;;;8.13;4.97;;;15.70;99.90;;;;;;4981069;28;20234;-68
2021/09/28 07:40:22;;;;;;;6.87;4.70;;;15.90;99.90;;;;;;4990557;28;20241;-68
2021/09/28 07:42:51;;;;;;;10.07;5.00;;;16.10;99.90;;;;;;4986297;28;20264;-69
2021/09/28 07:45:20;;;;;;;6.07;4.80;;;16.20;99.90;;;;;;4986060;28;20713;-68
2021/09/28 07:47:48;;;;;;;8.33;4.80;;;16.40;99.90;;;;;;4980010;28;20254;-68
2021/09/28 07:50:18;;;;;;;9.17;4.83;;;16.50;99.90;;;;;;4979161;28;20237;-68
2021/09/28 07:52:47;;;;;;;8.03;4.97;;;16.60;99.90;;;;;;4975171;28;20234;-68
2021/09/28 07:55:16;;;;;;;7.00;4.30;;;16.70;99.90;;;;;;4974031;28;20695;-68
2021/09/28 07:57:46;;;;;;;5.47;4.20;;;16.80;99.90;;;;;;4974908;28;20895;-68
2021/09/28 08:00:15;;;;;;;5.83;4.90;;;16.90;99.90;;;;;;4985152;28;20240;-68
2021/09/28 08:02:44;;;;;;;6.07;4.60;;;17.00;99.90;;;;;;4983103;28;20691;-68
2021/09/28 08:05:13;;;;;;;6.43;4.60;;;17.20;99.90;;;;;;4993417;28;20241;-68
2021/09/28 08:07:41;;;;;;;8.17;5.03;;;17.30;99.90;;;;;;4989650;28;20253;-69
2021/09/28 08:10:15;;;;;;;6.57;4.20;;;17.50;99.90;;;;;;4996122;28;20276;-68
2021/09/28 08:13:33;;;;;;;7.63;4.40;;;17.70;99.90;;;;;;4980624;28;20239;-68
2021/09/28 08:16:51;;;;;;;6.47;4.10;;;17.90;99.90;;;;;;4981702;28;20221;-68
2021/09/28 08:19:19;;;;;;;7.27;4.13;;;18.10;99.90;;;;;;4986498;28;20244;-69
2021/09/28 08:21:47;;;;;;;6.30;3.47;;;18.20;99.90;;;;;;4989400;28;20261;-68
2021/09/28 08:24:15;;;;;;;6.77;3.90;;;18.40;99.90;;;;;;4987619;28;20245;-69
2021/09/28 08:29:34;;;;;;;5.97;3.87;;;18.60;99.90;;;;;;4987146;28;20669;-69
2021/09/28 08:32:03;;;;;;;7.03;4.40;;;18.80;99.90;;;;;;4993071;28;20245;-69
2021/09/28 08:34:32;;;;;;;6.80;4.20;;;18.80;99.90;;;;;;4992444;28;20269;-69
2021/09/28 08:37:00;;;;;;;7.03;3.90;;;19.00;99.90;;;;;;4989936;28;20236;-69
2021/09/28 08:39:28;;;;;;;8.87;3.90;;;19.20;99.90;;;;;;4981539;28;20317;-69
2021/09/28 08:41:59;;;;;;;7.97;3.83;;;19.30;99.90;;;;;;4992081;28;20742;-69
2021/09/28 08:44:27;;;;;;;5.50;3.63;;;19.40;99.90;;;;;;4979782;28;20321;-69
2021/09/28 08:46:55;;;;;;;7.30;4.20;;;19.60;99.90;;;;;;4991477;28;20741;-69
2021/09/28 08:49:23;;;;;;;6.07;3.30;;;19.80;99.90;;;;;;4991245;28;20291;-68
2021/09/28 08:51:52;;;;;;;8.13;3.70;;;19.70;99.90;;;;;;4990383;28;20268;-69
2021/09/28 08:54:21;;;;;;;6.27;3.60;;;19.80;99.90;;;;;;4992415;28;20241;-69
2021/09/28 08:56:49;;;;;;;6.27;3.87;;;19.90;99.90;;;;;;4997273;28;20243;-68
2021/09/28 08:59:19;;;;;;;6.77;3.77;;;19.90;99.90;;;;;;4990668;28;20303;-69
2021/09/28 09:01:56;;;;;;;6.37;3.50;;;20.10;99.90;;;;;;4991439;28;20302;-69
2021/09/28 09:04:26;;;;;;;8.80;3.63;;;20.30;99.90;;;;;;4990311;28;20790;-68
2021/09/28 09:06:55;;;;;;;6.27;3.37;;;20.50;99.90;;;;;;4987069;28;20244;-68
2021/09/28 09:09:47;;;;;;;5.90;3.80;;;20.50;99.90;;;;;;4983884;28;20248;-68
2021/09/28 09:12:29;;;;;;;4.43;3.30;;;20.50;99.90;;;;;;4991230;28;20319;-69
2021/09/28 09:15:24;;;;;;;6.67;3.50;;;20.60;99.90;;;;;;4990597;28;20326;-68
2021/09/28 09:17:54;;;;;;;6.50;4.00;;;20.70;99.90;;;;;;4991356;28;20335;-68
2021/09/28 09:20:28;;;;;;;7.57;3.83;;;20.70;99.90;;;;;;4988396;28;20260;-68
2021/09/28 09:23:13;;;;;;;8.20;3.57;;;20.90;99.90;;;;;;4994066;28;20242;-68
2021/09/28 09:25:41;;;;;;;5.87;3.70;;;21.10;99.90;;;;;;4986640;28;20249;-68
2021/09/28 09:28:20;;;;;;;6.07;4.10;;;21.20;99.90;;;;;;4992205;28;20750;-68
2021/09/28 09:30:50;;;;;;;8.17;3.70;;;21.20;99.90;;;;;;4990662;28;20342;-69
2021/09/28 09:33:25;;;;;;;6.80;3.30;;;21.30;99.90;;;;;;4989432;28;20468;-69
2021/09/28 09:36:00;;;;;;;6.17;3.70;;;21.50;99.90;;;;;;4988727;28;20245;-68
2021/09/28 09:38:28;;;;;;;9.23;4.43;;;21.60;99.90;;;;;;4994049;28;20732;-69
2021/09/28 09:40:56;;;;;;;7.07;3.67;;;21.80;99.90;;;;;;4990760;28;20248;-69
2021/09/28 09:43:33;;;;;;;8.87;4.00;;;21.80;99.90;;;;;;4993386;28;20608;-69
2021/09/28 09:46:23;;;;;;;7.20;3.63;;;21.70;99.90;;;;;;4987705;28;20656;-69
2021/09/28 09:48:54;;;;;;;6.87;3.87;;;21.80;99.90;;;;;;4980250;28;20320;-69
2021/09/28 09:51:23;;;;;;;5.47;2.90;;;21.80;99.90;;;;;;4993173;28;20250;-69
2021/09/28 09:53:54;;;;;;;7.93;3.30;;;22.00;99.90;;;;;;4986468;28;20252;-69
2021/09/28 09:56:22;;;;;;;;;;;22.20;99.90;;;;;;965645;28;10001974;-69
2021/09/28 09:58:51;;;;;;;7.73;3.37;;;22.20;99.90;;;;;;4990301;28;20768;-69
2021/09/28 10:01:19;;;;;;;7.90;3.37;;;22.20;99.90;;;;;;4984094;28;20241;-69
2021/09/28 10:03:49;;;;;;;7.93;3.40;;;22.20;99.90;;;;;;4987852;28;20245;-69
2021/09/28 10:06:17;;;;;;;8.70;4.20;;;22.30;99.90;;;;;;4991519;28;20244;-69
2021/09/28 10:08:47;;;;;;;6.90;3.63;;;22.50;99.90;;;;;;4989608;28;20970;-69
2021/09/28 10:11:16;;;;;;;6.40;3.03;;;22.80;99.90;;;;;;4989181;28;20241;-69
2021/09/28 10:13:53;;;;;;;7.60;3.03;;;22.90;99.90;;;;;;4984583;28;20278;-68
2021/09/28 10:16:39;;;;;;;5.87;2.47;;;22.90;99.90;;;;;;4990675;28;20235;-69
2021/09/28 10:19:48;;;;;;;4.57;2.60;;;23.10;99.90;;;;;;4980466;28;20589;-69
2021/09/28 10:22:52;;;;;;;6.00;3.07;;;23.40;99.90;;;;;;4979409;28;20238;-69
2021/09/28 10:25:38;;;;;;;7.63;3.40;;;23.70;99.90;;;;;;4978723;28;20785;-69
2021/09/28 10:28:39;;;;;;;8.47;3.53;;;23.90;99.90;;;;;;4993857;28;20779;-69
2021/09/28 10:31:12;;;;;;;7.73;3.63;;;23.80;99.90;;;;;;4991569;28;20265;-69
2021/09/28 10:33:53;;;;;;;6.70;3.20;;;23.50;99.90;;;;;;4987769;28;20276;-68
2021/09/28 10:36:25;;;;;;;5.00;2.93;;;23.50;99.90;;;;;;4985977;28;20311;-69
2021/09/28 10:39:02;;;;;;;6.87;3.10;;;23.70;99.90;;;;;;4986391;28;20261;-68
2021/09/28 10:41:44;;;;;;;5.73;2.60;;;23.90;99.90;;;;;;4973688;28;20234;-69
2021/09/28 10:44:49;;;;;;;6.90;2.90;;;23.50;99.90;;;;;;4981506;28;20791;-69
2021/09/28 10:47:49;;;;;;;8.57;3.37;;;22.90;99.90;;;;;;4988900;28;20244;-68
2021/09/28 10:50:27;;;;;;;7.97;3.00;;;23.10;99.90;;;;;;4983030;28;20645;-69
2021/09/28 10:52:59;;;;;;;7.87;3.03;;;23.40;99.90;;;;;;4983026;28;20709;-69
2021/09/28 10:55:39;;;;;;;7.73;2.70;;;23.60;99.90;;;;;;4990997;28;20591;-68
2021/09/28 10:58:14;;;;;;;4.50;3.00;;;23.80;99.90;;;;;;4979517;28;20229;-68
2021/09/28 11:01:12;;;;;;;7.57;3.10;;;23.90;99.90;;;;;;4985392;28;20237;-68
2021/09/28 11:03:57;;;;;;;6.80;2.60;;;23.90;99.90;;;;;;4985173;28;20513;-68
2021/09/28 11:06:48;;;;;;;4.93;2.47;;;24.10;99.90;;;;;;4976670;28;20320;-68
2021/09/28 11:09:20;;;;;;;6.10;2.33;;;23.90;99.90;;;;;;4982504;28;20241;-69
2021/09/28 11:11:51;;;;;;;4.70;2.40;;;23.60;99.90;;;;;;4983863;28;20691;-69
2021/09/28 11:14:19;;;;;;;5.13;2.40;;;23.50;99.90;;;;;;4975919;28;20287;-69
2021/09/28 11:16:53;;;;;;;7.63;2.73;;;23.50;99.90;;;;;;4978976;28;20266;-68
2021/09/28 11:19:22;;;;;;;5.00;2.00;;;23.40;99.90;;;;;;4985866;28;20324;-68
2021/09/28 11:21:50;;;;;;;5.93;2.33;;;23.20;99.90;;;;;;4987617;28;20237;-68
2021/09/28 11:24:30;;;;;;;5.20;2.20;;;23.10;99.90;;;;;;4986805;28;20971;-68
2021/09/28 11:27:04;;;;;;;2.47;1.77;;;23.00;99.90;;;;;;4987372;28;20726;-68
2021/09/28 11:29:33;;;;;;;5.90;2.23;;;23.20;99.90;;;;;;4988091;28;20245;-69
2021/09/28 11:32:05;;;;;;;3.30;1.90;;;23.40;99.90;;;;;;4992528;28;20578;-68
2021/09/28 11:34:35;;;;;;;3.73;1.80;;;23.40;99.90;;;;;;4984756;28;20248;-68
2021/09/28 11:37:19;;;;;;;4.67;1.80;;;23.60;99.90;;;;;;4988612;28;20803;-69
2021/09/28 11:39:49;;;;;;;5.10;1.63;;;23.70;99.90;;;;;;4984010;28;20295;-68
2021/09/28 11:42:19;;;;;;;5.50;1.97;;;23.70;99.90;;;;;;4986603;28;20276;-69
2021/09/28 11:44:52;;;;;;;3.67;1.70;;;23.50;99.90;;;;;;4992262;28;20706;-69
2021/09/28 11:47:41;;;;;;;4.93;1.90;;;23.30;99.90;;;;;;4991343;28;20245;-68
2021/09/28 11:50:10;;;;;;;4.83;2.03;;;23.20;99.90;;;;;;4994497;28;20257;-68
2021/09/28 11:52:42;;;;;;;5.37;1.90;;;23.10;99.90;;;;;;4993742;28;20320;-68
2021/09/28 11:55:20;;;;;;;5.30;1.70;;;23.00;99.90;;;;;;4986601;28;20889;-68
2021/09/28 11:57:48;;;;;;;5.63;1.60;;;22.80;99.90;;;;;;4995951;28;20340;-68
2021/09/28 12:00:17;;;;;;;4.97;1.80;;;22.70;99.90;;;;;;4991662;28;20242;-69
2021/09/28 12:02:45;;;;;;;4.67;1.80;;;22.80;99.90;;;;;;4992506;28;20706;-69
2021/09/28 12:08:08;;;;;;;5.37;2.17;;;22.70;99.90;;;;;;4982807;28;20650;-68
2021/09/28 12:10:42;;;;;;;5.43;2.07;;;22.60;99.90;;;;;;4980592;28;20291;-68
2021/09/28 12:13:25;;;;;;;4.20;1.83;;;22.70;99.90;;;;;;4988266;28;20543;-69
2021/09/28 12:16:09;;;;;;;7.53;1.67;;;22.50;99.90;;;;;;4993357;28;20594;-69
2021/09/28 12:18:38;;;;;;;4.27;1.67;;;22.40;99.90;;;;;;4993505;28;20244;-69
2021/09/28 12:21:16;;;;;;;3.93;1.60;;;22.20;99.90;;;;;;4998069;28;20252;-69
2021/09/28 12:23:45;;;;;;;5.30;1.50;;;22.20;99.90;;;;;;4989157;28;20724;-69
2021/09/28 12:26:29;;;;;;;3.90;1.60;;;22.10;99.90;;;;;;4997272;28;20725;-69
2021/09/28 12:28:57;;;;;;;3.47;1.40;;;22.10;99.90;;;;;;4989515;28;20252;-69
2021/09/28 12:31:39;;;;;;;3.47;1.40;;;22.00;99.90;;;;;;4994408;28;20236;-68
2021/09/28 12:34:07;;;;;;;5.97;1.80;;;21.70;99.90;;;;;;4994712;28;20267;-69
2021/09/28 12:36:35;;;;;;;5.50;1.73;;;21.70;99.90;;;;;;4990708;28;20249;-69
2021/09/28 12:39:17;;;;;;;4.90;1.80;;;21.80;99.90;;;;;;4993608;28;20656;-69
2021/09/28 12:42:07;;;;;;;6.43;1.80;;;21.90;99.90;;;;;;4985924;28;21345;-69
2021/09/28 12:44:38;;;;;;;2.60;1.50;;;21.90;99.90;;;;;;4991705;28;20245;-69
2021/09/28 12:47:29;;;;;;;3.67;1.60;;;21.80;99.90;;;;;;4989554;28;20312;-69
2021/09/28 12:49:58;;;;;;;4.80;1.70;;;21.80;99.90;;;;;;4989500;28;20245;-69
2021/09/28 12:52:26;;;;;;;3.40;1.70;;;21.60;99.90;;;;;;5010878;28;20307;-69
2021/09/28 12:54:54;;;;;;;5.27;1.60;;;21.70;99.90;;;;;;4988415;28;20595;-69
2021/09/28 12:57:24;;;;;;;2.60;1.37;;;21.60;99.90;;;;;;4994950;28;20326;-69
2021/09/28 12:59:52;;;;;;;3.77;1.30;;;21.60;99.90;;;;;;4990929;28;20625;-69
2021/09/28 13:02:24;;;;;;;4.00;1.33;;;21.50;99.90;;;;;;4992859;28;20244;-69
2021/09/28 13:04:52;;;;;;;6.93;1.60;;;21.50;99.90;;;;;;4998369;28;20295;-69
2021/09/28 13:07:21;;;;;;;3.70;1.47;;;21.40;99.90;;;;;;4994833;28;20241;-69
2021/09/28 13:09:49;;;;;;;3.87;1.40;;;21.30;99.90;;;;;;4995128;28;20298;-69
2021/09/28 13:12:18;;;;;;;4.30;1.50;;;21.10;99.90;;;;;;4986802;28;20709;-68